Time;durP1;ratioP1;P1;durP2;ratioP2;P2;SDS_P1;SDS_P2;PMS_P1;PMS_P2;Temp;Humidity;BMP_temperature;BMP_pressure;BME280_temperature;BME280_humidity;BME280_pressure;Samples;Min_cycle;Max_cycle;Signal;HPM_P1;HPM_P2
2023/03/31 00:01:34;;;;;;;10.93;1.83;;;11.10;99.90;;;;;;5022481;28;20716;-80
2023/03/31 00:04:03;;;;;;;8.35;1.38;;;11.20;99.90;;;;;;5007730;28;20038;-79
2023/03/31 00:06:30;;;;;;;5.38;1.13;;;11.20;99.90;;;;;;5001473;28;20124;-79
2023/03/31 00:09:00;;;;;;;4.10;0.80;;;11.10;99.90;;;;;;5020139;28;20024;-80
2023/03/31 00:11:26;;;;;;;4.07;1.58;;;11.10;99.90;;;;;;5022122;28;20046;-79
2023/03/31 00:13:52;;;;;;;7.43;1.40;;;11.10;99.90;;;;;;4994788;28;20479;-80
2023/03/31 00:16:17;;;;;;;6.32;1.10;;;11.30;99.90;;;;;;5002324;28;20040;-80
2023/03/31 00:18:46;;;;;;;4.15;1.15;;;10.70;99.90;;;;;;5018079;28;20108;-80
2023/03/31 00:21:23;;;;;;;6.63;1.50;;;10.80;99.90;;;;;;5020795;28;20628;-80
2023/03/31 00:24:00;;;;;;;6.97;1.15;;;11.30;99.90;;;;;;5015407;28;20022;-80
2023/03/31 00:26:26;;;;;;;2.15;0.50;;;11.00;99.90;;;;;;5004018;28;20030;-79
2023/03/31 00:28:52;;;;;;;6.50;0.93;;;10.80;99.90;;;;;;4993219;28;20032;-79
2023/03/31 00:31:18;;;;;;;5.78;0.93;;;11.40;99.90;;;;;;5030581;28;20030;-80
2023/03/31 00:33:44;;;;;;;7.05;1.27;;;11.20;99.90;;;;;;5000540;28;20040;-80
2023/03/31 00:36:09;;;;;;;5.43;1.15;;;10.80;99.90;;;;;;5007434;28;20474;-80
2023/03/31 00:38:35;;;;;;;6.57;1.30;;;11.10;99.90;;;;;;5002294;28;20029;-80
2023/03/31 00:41:01;;;;;;;4.57;1.20;;;11.10;99.90;;;;;;4999283;28;20535;-81
2023/03/31 00:43:34;;;;;;;4.53;0.90;;;10.90;99.90;;;;;;5017255;28;20037;-80
2023/03/31 00:46:17;;;;;;;3.47;1.00;;;11.30;99.90;;;;;;4992131;28;20033;-80
2023/03/31 00:48:46;;;;;;;5.35;1.13;;;11.00;99.90;;;;;;5022819;28;20767;-80
2023/03/31 00:51:12;;;;;;;3.13;0.90;;;11.60;99.90;;;;;;5004368;28;20047;-80
2023/03/31 00:53:37;;;;;;;3.97;0.50;;;11.70;99.90;;;;;;5007132;28;20494;-81
2023/03/31 00:56:10;;;;;;;7.47;0.82;;;11.20;99.90;;;;;;5019117;28;20494;-79
2023/03/31 00:58:42;;;;;;;4.13;1.50;;;11.00;99.90;;;;;;5004377;28;20025;-80
2023/03/31 01:01:09;;;;;;;6.07;1.30;;;10.90;99.90;;;;;;5007564;28;20042;-80
2023/03/31 01:03:34;;;;;;;6.80;1.05;;;10.90;99.90;;;;;;5024426;28;20030;-81
2023/03/31 01:06:05;;;;;;;7.20;1.10;;;11.10;99.90;;;;;;5004742;28;20025;-81
2023/03/31 01:08:31;;;;;;;2.65;0.88;;;11.30;99.90;;;;;;5022694;28;20548;-80
2023/03/31 01:10:59;;;;;;;5.53;0.93;;;10.90;99.90;;;;;;5024117;28;20120;-80
2023/03/31 01:13:25;;;;;;;8.00;1.10;;;11.10;99.90;;;;;;5018759;28;20022;-80
2023/03/31 01:15:50;;;;;;;3.42;0.80;;;11.30;99.90;;;;;;5007702;28;20036;-81
2023/03/31 01:18:19;;;;;;;5.28;1.50;;;11.40;99.90;;;;;;5003157;28;20034;-80
2023/03/31 01:21:02;;;;;;;8.55;0.80;;;11.00;99.90;;;;;;5017874;28;20440;-80
2023/03/31 01:23:55;;;;;;;3.50;1.10;;;11.60;99.90;;;;;;5019173;28;20041;-80
2023/03/31 01:27:12;;;;;;;5.22;0.85;;;11.10;99.90;;;;;;5020948;28;20472;-81
2023/03/31 01:29:56;;;;;;;5.75;1.00;;;11.10;99.90;;;;;;4990871;28;20030;-81
2023/03/31 01:32:40;;;;;;;6.10;1.10;;;11.10;99.90;;;;;;5019755;28;20551;-80
2023/03/31 01:35:36;;;;;;;6.85;1.08;;;11.10;99.90;;;;;;5021747;28;20042;-80
2023/03/31 01:38:12;;;;;;;9.97;1.47;;;11.00;99.90;;;;;;4972584;28;20413;-80
2023/03/31 01:41:06;;;;;;;5.63;1.25;;;10.90;99.90;;;;;;5023540;28;20107;-80
2023/03/31 01:43:49;;;;;;;6.93;1.38;;;10.80;99.90;;;;;;5030958;28;20041;-81
2023/03/31 01:46:18;;;;;;;4.60;1.27;;;10.80;99.90;;;;;;5015319;28;20033;-80
2023/03/31 01:48:53;;;;;;;5.00;1.33;;;10.80;99.90;;;;;;5015537;28;20034;-80
2023/03/31 01:51:25;;;;;;;7.32;1.40;;;10.90;99.90;;;;;;5016134;28;20037;-81
2023/03/31 01:54:00;;;;;;;4.78;1.15;;;11.50;99.90;;;;;;5012943;28;20030;-80
2023/03/31 01:56:36;;;;;;;5.40;1.20;;;10.90;99.90;;;;;;5003282;28;20037;-80
2023/03/31 01:59:02;;;;;;;;;;;10.90;99.90;;;;;;5023120;28;20371;-80
2023/03/31 02:01:38;;;;;;;8.63;1.20;;;11.10;99.90;;;;;;5014287;28;19913;-80
2023/03/31 02:04:19;;;;;;;5.07;1.35;;;10.90;99.90;;;;;;5019856;28;20391;-80
2023/03/31 02:06:48;;;;;;;3.45;1.05;;;10.90;99.90;;;;;;5002434;28;20029;-80
2023/03/31 02:09:16;;;;;;;6.00;1.25;;;11.70;99.90;;;;;;5006412;28;20037;-80
2023/03/31 02:11:42;;;;;;;11.98;1.48;;;10.80;99.90;;;;;;5003398;28;20513;-80
2023/03/31 02:14:10;;;;;;;4.82;1.75;;;11.60;99.90;;;;;;5006021;28;20724;-80
2023/03/31 02:16:36;;;;;;;5.38;1.35;;;11.50;99.90;;;;;;5023485;28;20034;-80
2023/03/31 02:19:04;;;;;;;4.15;1.23;;;11.40;99.90;;;;;;4999316;28;20084;-81
2023/03/31 02:21:34;;;;;;;5.45;1.00;;;11.80;99.90;;;;;;5015268;28;20557;-80
2023/03/31 02:24:01;;;;;;;11.30;1.83;;;10.80;99.90;;;;;;5005371;28;20107;-80
2023/03/31 02:26:31;;;;;;;7.68;1.58;;;10.70;99.90;;;;;;5000579;28;20116;-80
2023/03/31 02:28:57;;;;;;;4.53;1.23;;;10.80;99.90;;;;;;5000025;28;20030;-80
2023/03/31 02:31:48;;;;;;;10.50;1.35;;;10.90;99.90;;;;;;5005021;28;20075;-78
2023/03/31 02:34:14;;;;;;;3.97;0.80;;;10.80;99.90;;;;;;4981147;28;20070;-79
2023/03/31 02:36:41;;;;;;;8.77;1.75;;;11.50;99.90;;;;;;5000374;28;20605;-79
2023/03/31 02:39:11;;;;;;;10.30;1.45;;;10.70;99.90;;;;;;4999692;28;20109;-79
2023/03/31 02:41:37;;;;;;;4.18;1.13;;;10.70;99.90;;;;;;5001690;28;20037;-79
2023/03/31 02:44:02;;;;;;;3.90;1.05;;;11.00;99.90;;;;;;5016913;28;20509;-78
2023/03/31 02:46:28;;;;;;;5.75;0.60;;;10.80;99.90;;;;;;5002087;28;20033;-81
2023/03/31 02:48:55;;;;;;;6.10;1.13;;;11.10;99.90;;;;;;5007597;28;20041;-81
2023/03/31 02:51:27;;;;;;;9.10;1.50;;;10.80;99.90;;;;;;5010752;28;20113;-81
2023/03/31 02:54:15;;;;;;;5.03;0.98;;;10.70;99.90;;;;;;5014555;28;20508;-81
2023/03/31 02:57:05;;;;;;;11.68;1.80;;;10.80;99.90;;;;;;5017731;28;20553;-81
2023/03/31 02:59:53;;;;;;;9.70;1.33;;;10.70;99.90;;;;;;5033377;28;20110;-82
2023/03/31 03:02:48;;;;;;;6.13;1.10;;;10.70;99.90;;;;;;5018439;28;20030;-81
2023/03/31 03:05:38;;;;;;;11.82;1.90;;;10.60;99.90;;;;;;5023953;28;20022;-81
2023/03/31 03:08:03;;;;;;;7.35;1.90;;;10.50;99.90;;;;;;5008546;28;20037;-82
2023/03/31 03:10:55;;;;;;;10.20;1.33;;;10.70;99.90;;;;;;5019753;28;20038;-82
2023/03/31 03:13:29;;;;;;;3.15;1.00;;;10.60;99.90;;;;;;5014016;28;20030;-82
2023/03/31 03:16:05;;;;;;;6.70;1.40;;;10.70;99.90;;;;;;5013096;28;20062;-82
2023/03/31 03:18:30;;;;;;;7.03;1.50;;;10.70;99.90;;;;;;5020109;28;20481;-82
2023/03/31 03:20:56;;;;;;;10.85;1.60;;;10.70;99.90;;;;;;5003357;28;20163;-81
2023/03/31 03:23:21;;;;;;;9.48;1.70;;;10.60;99.90;;;;;;5019904;28;20030;-81
2023/03/31 03:25:47;;;;;;;10.25;1.98;;;10.60;99.90;;;;;;5008710;28;20026;-81
2023/03/31 03:28:13;;;;;;;7.05;1.67;;;10.60;99.90;;;;;;4998096;28;20030;-82
2023/03/31 03:30:38;;;;;;;8.98;1.48;;;10.40;99.90;;;;;;5014563;28;20032;-82
2023/03/31 03:33:05;;;;;;;3.08;1.08;;;10.80;99.90;;;;;;5003494;28;20052;-83
2023/03/31 03:35:32;;;;;;;10.52;1.50;;;10.40;99.90;;;;;;5003442;28;20497;-82
2023/03/31 03:37:57;;;;;;;10.52;1.88;;;10.50;99.90;;;;;;5004443;28;20036;-82
2023/03/31 03:40:23;;;;;;;8.82;2.20;;;10.40;99.90;;;;;;5008052;28;20038;-82
2023/03/31 03:42:49;;;;;;;6.20;1.90;;;10.60;99.90;;;;;;5004026;28;20076;-82
2023/03/31 03:45:14;;;;;;;10.88;1.98;;;10.40;99.90;;;;;;5008568;28;20060;-81
2023/03/31 03:47:40;;;;;;;9.82;2.03;;;10.30;99.90;;;;;;5005685;28;20030;-83
2023/03/31 03:50:06;;;;;;;8.45;1.95;;;10.40;99.90;;;;;;5013558;28;20516;-82
2023/03/31 03:52:32;;;;;;;5.72;1.38;;;10.40;99.90;;;;;;5023186;28;20048;-82
2023/03/31 03:54:57;;;;;;;4.32;1.20;;;10.30;99.90;;;;;;5005758;28;20030;-83
2023/03/31 03:57:23;;;;;;;10.50;1.80;;;10.50;99.90;;;;;;5019224;28;20044;-83
2023/03/31 03:59:48;;;;;;;7.85;2.45;;;10.30;99.90;;;;;;5021341;28;20274;-82
2023/03/31 04:02:14;;;;;;;5.88;1.85;;;10.50;99.90;;;;;;5003967;28;20040;-82
2023/03/31 04:04:39;;;;;;;5.80;1.60;;;10.30;99.90;;;;;;5005804;28;20041;-83
2023/03/31 04:07:05;;;;;;;7.13;1.65;;;10.40;99.90;;;;;;5009299;28;20026;-83
2023/03/31 04:09:30;;;;;;;8.45;1.98;;;10.50;99.90;;;;;;5023159;28;20099;-82
2023/03/31 04:11:56;;;;;;;5.82;1.50;;;10.40;99.90;;;;;;5005623;28;20033;-83
2023/03/31 04:14:22;;;;;;;10.63;2.20;;;10.30;99.90;;;;;;5004569;28;20144;-82
2023/03/31 04:16:47;;;;;;;7.05;1.52;;;10.70;99.90;;;;;;5006658;28;20068;-83
2023/03/31 04:19:16;;;;;;;5.32;1.35;;;11.00;99.90;;;;;;5022705;28;20051;-83
2023/03/31 04:21:44;;;;;;;5.45;1.17;;;10.40;99.90;;;;;;5018944;28;20034;-82
2023/03/31 04:24:11;;;;;;;5.70;1.27;;;10.30;99.90;;;;;;5021578;28;20042;-82
2023/03/31 04:26:42;;;;;;;5.22;0.95;;;10.60;99.90;;;;;;5008365;28;20396;-82
2023/03/31 04:29:12;;;;;;;7.10;1.13;;;10.50;99.90;;;;;;5005565;28;20025;-83
2023/03/31 04:31:41;;;;;;;8.70;1.80;;;10.20;99.90;;;;;;5007517;28;20045;-83
2023/03/31 04:34:12;;;;;;;5.07;1.20;;;10.50;99.90;;;;;;5007976;28;20125;-83
2023/03/31 04:36:41;;;;;;;10.98;1.63;;;10.40;99.90;;;;;;5036152;28;20063;-83
2023/03/31 04:39:09;;;;;;;9.88;1.85;;;11.10;99.90;;;;;;5007623;28;20393;-83
2023/03/31 04:41:35;;;;;;;9.27;1.48;;;10.20;99.90;;;;;;5005767;28;20037;-83
2023/03/31 04:44:01;;;;;;;13.90;1.67;;;10.20;99.90;;;;;;5005765;28;20029;-83
2023/03/31 04:46:26;;;;;;;10.18;1.40;;;10.40;99.90;;;;;;5008992;28;20030;-83
2023/03/31 04:48:52;;;;;;;8.02;1.50;;;11.20;99.90;;;;;;5009090;28;20522;-82
2023/03/31 04:51:19;;;;;;;5.63;1.40;;;10.40;99.90;;;;;;5034446;28;20033;-82
2023/03/31 04:53:45;;;;;;;8.40;2.33;;;10.20;99.90;;;;;;5019701;28;20541;-81
2023/03/31 04:56:11;;;;;;;8.93;2.17;;;10.60;99.90;;;;;;5003545;28;20033;-82
2023/03/31 04:58:36;;;;;;;6.82;1.23;;;10.10;99.90;;;;;;5023588;28;20033;-82
2023/03/31 05:01:02;;;;;;;5.60;1.30;;;10.30;99.90;;;;;;5027011;28;20395;-82
2023/03/31 05:03:28;;;;;;;12.02;1.23;;;10.30;99.90;;;;;;5000026;28;20060;-83
2023/03/31 05:05:53;;;;;;;9.07;1.48;;;10.30;99.90;;;;;;5008605;28;20045;-82
2023/03/31 05:08:20;;;;;;;9.30;1.45;;;10.10;99.90;;;;;;5017851;28;20041;-81
2023/03/31 05:10:45;;;;;;;5.85;1.25;;;10.50;99.90;;;;;;4999848;28;20053;-78
2023/03/31 05:13:11;;;;;;;6.50;1.30;;;10.40;99.90;;;;;;5003433;28;20091;-78
2023/03/31 05:15:38;;;;;;;4.20;1.30;;;10.20;99.90;;;;;;5002945;28;20099;-79
2023/03/31 05:18:03;;;;;;;6.95;1.40;;;10.10;99.90;;;;;;5016561;28;20052;-79
2023/03/31 05:20:29;;;;;;;6.22;1.05;;;10.10;99.90;;;;;;5018135;28;20033;-79
2023/03/31 05:22:55;;;;;;;7.63;1.40;;;10.10;99.90;;;;;;5021794;28;20037;-79
2023/03/31 05:25:21;;;;;;;5.30;1.58;;;10.20;99.90;;;;;;5035010;28;20041;-79
2023/03/31 05:27:46;;;;;;;4.47;1.10;;;10.00;99.90;;;;;;5014978;28;20957;-79
2023/03/31 05:30:13;;;;;;;3.92;0.95;;;10.20;99.90;;;;;;5022574;28;20113;-83
2023/03/31 05:32:38;;;;;;;6.47;1.30;;;10.10;99.90;;;;;;5020793;28;20030;-81
2023/03/31 05:35:04;;;;;;;5.25;1.13;;;10.50;99.90;;;;;;5006919;28;20049;-79
2023/03/31 05:37:30;;;;;;;5.80;2.05;;;10.20;99.90;;;;;;5006547;28;20490;-80
2023/03/31 05:39:56;;;;;;;4.70;1.10;;;10.70;99.90;;;;;;4992932;28;20212;-83
2023/03/31 05:42:21;;;;;;;7.63;1.45;;;10.10;99.90;;;;;;5016677;28;20068;-83
2023/03/31 05:44:47;;;;;;;4.45;0.70;;;10.30;99.90;;;;;;5021537;28;20378;-82
2023/03/31 05:47:13;;;;;;;2.22;0.88;;;10.40;99.90;;;;;;5010164;28;20431;-82
2023/03/31 05:49:38;;;;;;;6.32;1.70;;;10.10;99.90;;;;;;5001291;28;20034;-83
2023/03/31 05:52:05;;;;;;;3.20;0.90;;;11.20;99.90;;;;;;5000480;28;20141;-83
2023/03/31 05:54:31;;;;;;;5.70;1.15;;;10.10;99.90;;;;;;5007979;28;20455;-82
2023/03/31 05:56:57;;;;;;;4.75;1.05;;;10.70;99.90;;;;;;5018149;28;20141;-82
2023/03/31 05:59:22;;;;;;;4.78;1.20;;;10.20;99.90;;;;;;5005681;28;20049;-82
2023/03/31 06:01:48;;;;;;;4.20;1.00;;;10.20;99.90;;;;;;5014365;28;20265;-82
2023/03/31 06:04:13;;;;;;;7.53;1.00;;;10.10;99.90;;;;;;5019393;28;20037;-83
2023/03/31 06:06:39;;;;;;;4.85;1.27;;;10.30;99.90;;;;;;5014209;28;20030;-83
2023/03/31 06:09:04;;;;;;;4.78;1.00;;;11.00;99.90;;;;;;5000865;28;20043;-83
2023/03/31 06:11:30;;;;;;;4.47;0.80;;;10.30;99.90;;;;;;4988429;28;20457;-83
2023/03/31 06:13:56;;;;;;;5.18;1.17;;;10.60;99.90;;;;;;4998582;28;20026;-83
2023/03/31 06:16:21;;;;;;;5.03;0.90;;;9.70;99.90;;;;;;5031821;28;20026;-82
2023/03/31 06:18:47;;;;;;;2.50;0.77;;;9.90;99.90;;;;;;5009980;28;20485;-81
2023/03/31 06:21:16;;;;;;;3.10;1.00;;;10.00;99.90;;;;;;5023150;28;20025;-82
2023/03/31 06:23:45;;;;;;;3.85;0.93;;;10.00;99.90;;;;;;4986898;28;20033;-82
2023/03/31 06:26:17;;;;;;;5.63;1.00;;;10.80;99.90;;;;;;5002898;28;20087;-81
2023/03/31 06:28:43;;;;;;;3.42;0.90;;;10.30;99.90;;;;;;5005541;28;20040;-83
2023/03/31 06:31:11;;;;;;;5.43;1.20;;;10.00;99.90;;;;;;4999202;28;20075;-82
2023/03/31 06:33:37;;;;;;;5.38;1.63;;;10.20;99.90;;;;;;5025767;28;20037;-83
2023/03/31 06:36:04;;;;;;;3.85;0.90;;;10.00;99.90;;;;;;4991879;28;20465;-81
2023/03/31 06:38:30;;;;;;;6.13;1.08;;;10.20;99.90;;;;;;5007316;28;20147;-80
2023/03/31 06:40:55;;;;;;;3.70;0.90;;;10.00;99.90;;;;;;4990897;28;20125;-80
2023/03/31 06:43:21;;;;;;;3.67;1.08;;;10.30;99.90;;;;;;5016291;28;20111;-81
2023/03/31 06:45:47;;;;;;;1.67;0.75;;;10.30;99.90;;;;;;5007923;28;20025;-80
2023/03/31 06:48:12;;;;;;;4.63;0.98;;;10.10;99.90;;;;;;5020041;28;20033;-81
2023/03/31 06:50:38;;;;;;;3.70;1.00;;;10.00;99.90;;;;;;5024087;28;20029;-80
2023/03/31 06:53:04;;;;;;;3.78;1.10;;;10.10;99.90;;;;;;5003797;28;20383;-80
2023/03/31 06:55:31;;;;;;;6.85;1.30;;;10.00;99.90;;;;;;5004211;28;20040;-81
2023/03/31 06:57:56;;;;;;;4.65;1.20;;;10.00;99.90;;;;;;4999936;28;20107;-79
2023/03/31 07:00:24;;;;;;;5.30;1.00;;;10.20;99.90;;;;;;5007499;28;20676;-79
2023/03/31 07:02:50;;;;;;;1.25;0.80;;;10.20;99.90;;;;;;5020659;28;20026;-79
2023/03/31 07:05:17;;;;;;;5.55;0.80;;;10.30;99.90;;;;;;5009844;28;20583;-79
2023/03/31 07:07:42;;;;;;;3.88;1.00;;;10.10;99.90;;;;;;5015095;28;20038;-79
2023/03/31 07:10:08;;;;;;;2.17;1.08;;;10.30;99.90;;;;;;5019987;28;20107;-80
2023/03/31 07:12:34;;;;;;;4.07;1.20;;;10.10;99.90;;;;;;5003473;28;20494;-79
2023/03/31 07:14:59;;;;;;;4.72;1.20;;;10.50;99.90;;;;;;4996507;28;20034;-79
2023/03/31 07:17:25;;;;;;;3.42;1.02;;;10.10;99.90;;;;;;5015954;28;20076;-79
2023/03/31 07:19:50;;;;;;;2.75;0.90;;;10.40;99.90;;;;;;5024212;28;20029;-79
2023/03/31 07:22:16;;;;;;;2.47;0.90;;;10.20;99.90;;;;;;5015039;28;20026;-79
2023/03/31 07:24:42;;;;;;;7.35;1.45;;;10.10;99.90;;;;;;5004526;28;20056;-82
2023/03/31 07:27:08;;;;;;;5.68;1.17;;;10.30;99.90;;;;;;5006600;28;20052;-82
2023/03/31 07:29:33;;;;;;;4.10;1.05;;;10.00;99.90;;;;;;5015010;28;20033;-81
2023/03/31 07:31:59;;;;;;;5.85;1.00;;;10.20;99.90;;;;;;5016287;28;20057;-81
2023/03/31 07:34:24;;;;;;;2.45;0.60;;;10.20;99.90;;;;;;5001618;28;20030;-81
2023/03/31 07:36:51;;;;;;;7.32;0.93;;;10.10;99.90;;;;;;5023067;28;20064;-82
2023/03/31 07:39:17;;;;;;;1.25;0.70;;;10.50;99.90;;;;;;5015862;28;20124;-80
2023/03/31 07:41:42;;;;;;;5.82;0.80;;;9.60;99.90;;;;;;5033090;28;20565;-81
2023/03/31 07:44:08;;;;;;;4.03;0.88;;;10.80;99.90;;;;;;5002971;28;20453;-83
2023/03/31 07:46:34;;;;;;;5.05;1.13;;;10.20;99.90;;;;;;5003063;28;20062;-83
2023/03/31 07:49:02;;;;;;;8.57;2.28;;;10.10;99.90;;;;;;5007675;28;20018;-82
2023/03/31 07:51:27;;;;;;;12.90;3.95;;;10.40;99.90;;;;;;5005459;28;20018;-83
2023/03/31 07:53:53;;;;;;;5.25;1.85;;;10.40;99.90;;;;;;5017220;28;20037;-83
2023/03/31 07:56:22;;;;;;;4.93;2.45;;;11.00;99.90;;;;;;5018500;28;20355;-83
2023/03/31 07:58:48;;;;;;;6.78;2.03;;;10.00;99.90;;;;;;5023202;28;20482;-83
2023/03/31 08:01:17;;;;;;;13.02;3.00;;;10.80;99.90;;;;;;5006805;28;20033;-85
2023/03/31 08:03:44;;;;;;;8.13;2.40;;;10.00;99.90;;;;;;5016139;28;20442;-84
2023/03/31 08:06:10;;;;;;;14.13;3.53;;;10.20;99.90;;;;;;5009627;28;20037;-84
2023/03/31 08:08:37;;;;;;;18.30;4.20;;;11.20;99.90;;;;;;5022725;28;20454;-84
2023/03/31 08:11:03;;;;;;;12.23;4.55;;;11.00;99.90;;;;;;5005046;28;20057;-84
2023/03/31 08:13:29;;;;;;;9.20;1.73;;;10.30;99.90;;;;;;5004746;28;20026;-82
2023/03/31 08:15:54;;;;;;;18.90;5.80;;;11.50;99.90;;;;;;5006081;28;20536;-82
2023/03/31 08:18:20;;;;;;;21.65;6.00;;;9.70;99.90;;;;;;5018879;28;20052;-83
2023/03/31 08:20:48;;;;;;;17.83;5.28;;;10.20;99.90;;;;;;5035638;28;20052;-82
2023/03/31 08:23:14;;;;;;;17.25;4.50;;;10.70;99.90;;;;;;5010588;28;20561;-82
2023/03/31 08:25:40;;;;;;;16.50;6.32;;;10.50;99.90;;;;;;5002249;28;20034;-83
2023/03/31 08:28:09;;;;;;;11.13;4.18;;;10.70;99.90;;;;;;5010548;28;20096;-83
2023/03/31 08:30:36;;;;;;;3.15;0.70;;;10.50;99.90;;;;;;5007165;28;20034;-83
2023/03/31 08:33:01;;;;;;;16.90;5.82;;;11.70;99.90;;;;;;5006050;28;20029;-81
2023/03/31 08:35:27;;;;;;;5.82;1.05;;;10.50;99.90;;;;;;5006611;28;20489;-81
2023/03/31 08:37:53;;;;;;;4.13;1.10;;;10.50;99.90;;;;;;5008327;28;20033;-80
2023/03/31 08:40:20;;;;;;;3.25;0.88;;;10.80;99.90;;;;;;5006295;28;20498;-80
2023/03/31 08:42:49;;;;;;;8.60;2.05;;;10.60;99.90;;;;;;5007343;28;20046;-80
2023/03/31 08:45:14;;;;;;;8.05;1.80;;;10.60;99.90;;;;;;5019863;28;20108;-80
2023/03/31 08:47:40;;;;;;;16.77;6.30;;;10.50;99.90;;;;;;5023684;28;20176;-80
2023/03/31 08:50:14;;;;;;;27.50;2.10;;;10.40;99.90;;;;;;5026016;28;20481;-80
2023/03/31 08:53:07;;;;;;;12.05;2.17;;;10.60;99.90;;;;;;5004489;28;20033;-80
2023/03/31 08:55:51;;;;;;;11.30;2.83;;;10.50;99.90;;;;;;5017449;28;20105;-80
2023/03/31 08:58:40;;;;;;;10.50;3.13;;;10.50;99.90;;;;;;5018973;28;20037;-80
2023/03/31 09:01:29;;;;;;;15.40;5.22;;;10.40;99.90;;;;;;5004513;28;20034;-79
2023/03/31 09:04:13;;;;;;;25.95;6.97;;;10.40;99.90;;;;;;5009707;28;20030;-79
2023/03/31 09:06:44;;;;;;;18.88;5.82;;;10.40;99.90;;;;;;5018968;28;20037;-79
2023/03/31 09:09:14;;;;;;;13.65;4.57;;;10.50;99.90;;;;;;5036024;28;20030;-79
2023/03/31 09:11:49;;;;;;;12.57;3.85;;;10.70;99.90;;;;;;5006726;28;20038;-81
2023/03/31 09:14:37;;;;;;;13.50;3.67;;;10.70;99.90;;;;;;5011039;28;20067;-81
2023/03/31 09:17:20;;;;;;;10.15;3.58;;;10.80;99.90;;;;;;5021174;28;20041;-79
2023/03/31 09:19:53;;;;;;;12.90;3.65;;;10.90;99.90;;;;;;5025858;28;20037;-80
2023/03/31 09:22:24;;;;;;;11.52;3.63;;;11.00;99.90;;;;;;5004850;28;20091;-79
2023/03/31 09:25:02;;;;;;;8.43;2.30;;;11.00;99.90;;;;;;5018944;28;20036;-80
2023/03/31 09:27:30;;;;;;;12.55;3.58;;;11.90;99.90;;;;;;5010156;28;20393;-81
2023/03/31 09:30:04;;;;;;;7.35;2.75;;;11.70;99.90;;;;;;4994576;28;20029;-80
2023/03/31 09:32:30;;;;;;;5.75;2.08;;;11.60;99.90;;;;;;5005381;28;20030;-81
2023/03/31 09:35:01;;;;;;;7.63;2.83;;;12.20;99.90;;;;;;5018672;28;20476;-79
2023/03/31 09:37:29;;;;;;;8.23;2.60;;;11.80;99.90;;;;;;5005571;28;20504;-80
2023/03/31 09:39:56;;;;;;;13.93;3.75;;;11.70;99.90;;;;;;5008625;28;20831;-79
2023/03/31 09:42:22;;;;;;;12.60;4.10;;;11.90;99.90;;;;;;5000845;28;20453;-79
2023/03/31 09:44:48;;;;;;;10.13;2.60;;;12.40;99.90;;;;;;5014920;28;20030;-80
2023/03/31 09:47:38;;;;;;;9.93;3.50;;;12.50;99.90;;;;;;5032767;28;20033;-79
2023/03/31 09:50:06;;;;;;;9.30;2.80;;;12.00;99.90;;;;;;5002993;28;20581;-79
2023/03/31 09:52:33;;;;;;;12.27;3.08;;;11.80;99.90;;;;;;5004653;28;20054;-80
2023/03/31 09:55:05;;;;;;;9.15;2.60;;;11.80;99.90;;;;;;4993920;28;20034;-80
2023/03/31 09:57:33;;;;;;;9.93;3.22;;;11.80;99.90;;;;;;5017704;28;20025;-81
2023/03/31 10:00:14;;;;;;;8.43;3.70;;;11.60;99.90;;;;;;5007526;28;20391;-81
2023/03/31 10:02:49;;;;;;;6.65;1.90;;;12.20;99.90;;;;;;5033069;28;20477;-81
2023/03/31 10:05:38;;;;;;;9.15;2.58;;;11.70;99.90;;;;;;5020741;28;20052;-83
2023/03/31 10:08:16;;;;;;;9.00;2.30;;;11.70;99.90;;;;;;5022595;28;20034;-86
2023/03/31 10:10:56;;;;;;;6.18;2.25;;;11.60;99.90;;;;;;5023500;28;20679;-83
2023/03/31 10:13:28;;;;;;;8.32;2.50;;;11.90;99.90;;;;;;5000730;28;20092;-83
2023/03/31 10:16:00;;;;;;;11.63;3.03;;;11.90;99.90;;;;;;4999783;28;20030;-84
2023/03/31 10:18:34;;;;;;;8.50;2.33;;;12.20;99.90;;;;;;5022537;28;20068;-83
2023/03/31 10:21:00;;;;;;;7.78;2.40;;;12.20;99.90;;;;;;5017492;28;20130;-84
2023/03/31 10:23:28;;;;;;;14.10;2.55;;;12.50;99.90;;;;;;5008789;28;20048;-83
2023/03/31 10:25:54;;;;;;;6.93;2.55;;;12.30;99.90;;;;;;5007489;28;20036;-82
2023/03/31 10:28:20;;;;;;;10.95;2.65;;;12.60;99.90;;;;;;5021421;28;20464;-80
2023/03/31 10:30:48;;;;;;;10.05;2.85;;;12.10;99.90;;;;;;5006984;28;20040;-83
2023/03/31 10:33:16;;;;;;;12.35;2.08;;;12.30;99.90;;;;;;5016861;28;20553;-82
2023/03/31 10:35:42;;;;;;;8.75;1.85;;;12.30;99.90;;;;;;5002530;28;20069;-83
2023/03/31 10:38:13;;;;;;;6.93;1.33;;;12.00;99.90;;;;;;5003536;28;20034;-83
2023/03/31 10:40:38;;;;;;;11.48;2.20;;;12.40;99.90;;;;;;5008096;28;20440;-83
2023/03/31 10:43:17;;;;;;;7.57;1.50;;;12.00;99.90;;;;;;5003717;28;20038;-82
2023/03/31 10:45:49;;;;;;;8.88;2.00;;;12.40;99.90;;;;;;5034954;28;20068;-82
2023/03/31 10:48:23;;;;;;;12.52;2.08;;;12.40;99.90;;;;;;5034690;28;20054;-84
2023/03/31 10:50:49;;;;;;;8.70;2.13;;;13.10;99.90;;;;;;5012800;28;20029;-84
2023/03/31 10:53:15;;;;;;;11.25;2.17;;;12.40;99.90;;;;;;5007939;28;20053;-83
2023/03/31 10:55:53;;;;;;;15.57;2.17;;;12.80;99.90;;;;;;5003829;28;20034;-84
2023/03/31 10:58:32;;;;;;;13.43;2.60;;;12.70;99.90;;;;;;5024452;28;20124;-84
2023/03/31 11:01:06;;;;;;;4.30;1.33;;;12.80;99.90;;;;;;5025795;28;20547;-86
2023/03/31 11:03:59;;;;;;;7.45;1.98;;;12.80;99.90;;;;;;5018270;28;20030;-83
2023/03/31 11:06:46;;;;;;;10.55;2.03;;;13.30;99.90;;;;;;5024698;28;20034;-82
2023/03/31 11:09:29;;;;;;;8.52;1.75;;;13.50;99.90;;;;;;5019288;28;20079;-83
2023/03/31 11:11:55;;;;;;;7.63;1.50;;;13.80;99.90;;;;;;5005391;28;20107;-83
2023/03/31 11:14:35;;;;;;;5.05;1.48;;;14.00;99.90;;;;;;5024966;28;20045;-81
2023/03/31 11:17:30;;;;;;;7.10;1.52;;;13.80;99.90;;;;;;5018418;28;20063;-81
2023/03/31 11:20:15;;;;;;;3.08;1.48;;;13.50;99.90;;;;;;5013168;28;20034;-81
2023/03/31 11:23:09;;;;;;;9.38;1.60;;;13.10;99.90;;;;;;5020653;28;20033;-82
2023/03/31 11:25:39;;;;;;;3.05;1.00;;;12.90;99.90;;;;;;5025182;28;20065;-82
2023/03/31 11:28:16;;;;;;;8.80;1.35;;;12.90;99.90;;;;;;5028109;28;20419;-82
2023/03/31 11:30:47;;;;;;;7.07;1.25;;;13.10;99.90;;;;;;5023842;28;20066;-83
2023/03/31 11:33:15;;;;;;;3.45;1.05;;;13.00;99.90;;;;;;5017108;28;20375;-81
2023/03/31 11:35:58;;;;;;;3.78;0.82;;;12.70;99.90;;;;;;5021482;28;20042;-82
2023/03/31 11:38:54;;;;;;;1.33;0.52;;;12.60;99.90;;;;;;5030247;28;20034;-81
2023/03/31 11:41:27;;;;;;;5.15;1.42;;;12.60;99.90;;;;;;5007286;28;20037;-81
2023/03/31 11:44:02;;;;;;;6.72;1.70;;;12.80;99.90;;;;;;5002557;28;20422;-82
2023/03/31 11:46:40;;;;;;;3.83;1.10;;;12.60;99.90;;;;;;5017027;28;20405;-82
2023/03/31 11:49:25;;;;;;;5.63;1.80;;;12.70;99.90;;;;;;5001202;28;20033;-82
2023/03/31 11:51:52;;;;;;;5.10;1.90;;;12.70;99.90;;;;;;5018678;28;20034;-82
2023/03/31 11:54:30;;;;;;;6.70;1.50;;;12.80;99.90;;;;;;5002089;28;20129;-84
2023/03/31 11:56:56;;;;;;;6.95;1.15;;;12.70;99.90;;;;;;5004841;28;20049;-80
2023/03/31 11:59:21;;;;;;;3.75;1.15;;;12.90;99.90;;;;;;5006233;28;20041;-80
2023/03/31 12:01:53;;;;;;;6.07;0.93;;;13.40;99.90;;;;;;5029463;28;20037;-81
2023/03/31 12:04:39;;;;;;;3.97;1.33;;;13.20;99.90;;;;;;4997105;28;20814;-80
2023/03/31 12:07:47;;;;;;;5.03;0.88;;;13.60;99.90;;;;;;5009102;28;20503;-80
2023/03/31 12:10:19;;;;;;;5.43;1.52;;;13.20;99.90;;;;;;4971988;28;20557;-80
2023/03/31 12:13:22;;;;;;;7.57;1.88;;;13.40;99.90;;;;;;5033982;28;20101;-80
2023/03/31 12:15:59;;;;;;;5.05;1.40;;;13.50;99.90;;;;;;5018025;28;20044;-80
2023/03/31 12:18:25;;;;;;;2.90;0.57;;;13.70;99.90;;;;;;5001887;28;20034;-80
2023/03/31 12:20:55;;;;;;;5.95;1.77;;;13.30;99.90;;;;;;5006070;28;20056;-80
2023/03/31 12:23:22;;;;;;;7.65;1.35;;;13.50;99.90;;;;;;5021202;28;20549;-81
2023/03/31 12:25:58;;;;;;;2.53;0.63;;;13.70;99.90;;;;;;5026580;28;20053;-80
2023/03/31 12:28:26;;;;;;;7.18;1.13;;;13.70;99.90;;;;;;5016658;28;20037;-80
2023/03/31 12:30:52;;;;;;;5.82;1.48;;;13.80;99.90;;;;;;4994552;28;20110;-79
2023/03/31 12:33:26;;;;;;;7.65;1.58;;;13.90;99.90;;;;;;5016832;28;20498;-80
2023/03/31 12:36:28;;;;;;;4.30;1.60;;;14.10;99.90;;;;;;5016906;28;20172;-79
2023/03/31 12:39:07;;;;;;;5.40;1.48;;;14.00;99.90;;;;;;5007789;28;20210;-81
2023/03/31 12:42:07;;;;;;;3.03;0.77;;;13.80;99.90;;;;;;5018165;28;20065;-79
2023/03/31 12:44:54;;;;;;;11.00;1.38;;;13.40;99.90;;;;;;5018517;28;20025;-77
2023/03/31 12:47:42;;;;;;;5.25;1.20;;;13.30;99.90;;;;;;5020569;28;20417;-78
2023/03/31 12:50:18;;;;;;;4.10;0.88;;;13.00;99.90;;;;;;5010069;28;20401;-78
2023/03/31 12:53:21;;;;;;;4.40;1.02;;;12.80;99.90;;;;;;4990743;28;20034;-76
2023/03/31 12:55:48;;;;;;;8.13;1.50;;;12.80;99.90;;;;;;5021646;28;20103;-77
2023/03/31 12:58:28;;;;;;;8.07;2.40;;;12.90;99.90;;;;;;5005146;28;20041;-77
2023/03/31 13:01:18;;;;;;;7.82;1.17;;;13.00;99.90;;;;;;5026728;28;20388;-77
2023/03/31 13:03:45;;;;;;;7.90;1.50;;;13.00;99.90;;;;;;5004351;28;20032;-79
2023/03/31 13:06:31;;;;;;;8.52;1.63;;;13.40;99.90;;;;;;5017960;28;20057;-77